sensor_id;sensor_type;location;lat;lon;timestamp;temperature;humidity
39023;DHT22;25908;51.984;5.928;2022-12-17T00:01:02;3.10;99.90
39023;DHT22;25908;51.984;5.928;2022-12-17T00:03:46;3.10;99.90
39023;DHT22;25908;51.984;5.928;2022-12-17T00:06:31;3.10;99.90
39023;DHT22;25908;51.984;5.928;2022-12-17T00:09:14;3.10;99.90
39023;DHT22;25908;51.984;5.928;2022-12-17T00:11:58;3.10;99.90
39023;DHT22;25908;51.984;5.928;2022-12-17T00:14:42;3.10;99.90
39023;DHT22;25908;51.984;5.928;2022-12-17T00:17:26;3.10;99.90
39023;DHT22;25908;51.984;5.928;2022-12-17T00:20:11;3.10;99.90
39023;DHT22;25908;51.984;5.928;2022-12-17T00:23:03;3.10;99.90
39023;DHT22;25908;51.984;5.928;2022-12-17T00:25:51;3.10;99.90
39023;DHT22;25908;51.984;5.928;2022-12-17T00:28:36;3.10;99.90
39023;DHT22;25908;51.984;5.928;2022-12-17T00:31:20;3.10;99.90
39023;DHT22;25908;51.984;5.928;2022-12-17T00:34:05;3.10;99.90
39023;DHT22;25908;51.984;5.928;2022-12-17T00:36:49;3.10;99.90
39023;DHT22;25908;51.984;5.928;2022-12-17T00:39:34;3.10;99.90
39023;DHT22;25908;51.984;5.928;2022-12-17T00:42:19;3.00;99.90
39023;DHT22;25908;51.984;5.928;2022-12-17T00:45:04;3.10;99.90
39023;DHT22;25908;51.984;5.928;2022-12-17T00:47:48;3.00;99.90
39023;DHT22;25908;51.984;5.928;2022-12-17T00:50:32;3.00;99.90
39023;DHT22;25908;51.984;5.928;2022-12-17T00:53:16;3.00;99.90
39023;DHT22;25908;51.984;5.928;2022-12-17T00:56:00;3.00;99.90
39023;DHT22;25908;51.984;5.928;2022-12-17T00:58:45;3.00;99.90
39023;DHT22;25908;51.984;5.928;2022-12-17T01:01:29;3.00;99.90
39023;DHT22;25908;51.984;5.928;2022-12-17T01:04:13;3.00;99.90
39023;DHT22;25908;51.984;5.928;2022-12-17T01:06:57;3.00;99.90
39023;DHT22;25908;51.984;5.928;2022-12-17T01:09:41;3.00;99.90
39023;DHT22;25908;51.984;5.928;2022-12-17T01:12:25;3.00;99.90
39023;DHT22;25908;51.984;5.928;2022-12-17T01:15:09;3.00;99.90
39023;DHT22;25908;51.984;5.928;2022-12-17T01:17:53;3.00;99.90
39023;DHT22;25908;51.984;5.928;2022-12-17T01:20:37;3.00;99.90
39023;DHT22;25908;51.984;5.928;2022-12-17T01:23:21;3.00;99.90
39023;DHT22;25908;51.984;5.928;2022-12-17T01:26:05;3.00;99.90
39023;DHT22;25908;51.984;5.928;2022-12-17T01:28:49;3.00;99.90
39023;DHT22;25908;51.984;5.928;2022-12-17T01:31:50;3.00;99.90
39023;DHT22;25908;51.984;5.928;2022-12-17T01:34:34;3.00;99.90
39023;DHT22;25908;51.984;5.928;2022-12-17T01:37:18;3.00;99.90
39023;DHT22;25908;51.984;5.928;2022-12-17T01:40:03;3.00;99.90
39023;DHT22;25908;51.984;5.928;2022-12-17T01:42:47;3.00;99.90
39023;DHT22;25908;51.984;5.928;2022-12-17T01:45:38;3.00;99.90
39023;DHT22;25908;51.984;5.928;2022-12-17T01:48:37;3.00;99.90
39023;DHT22;25908;51.984;5.928;2022-12-17T01:51:23;3.00;99.90
39023;DHT22;25908;51.984;5.928;2022-12-17T01:54:08;3.00;99.90
39023;DHT22;25908;51.984;5.928;2022-12-17T01:56:53;3.00;99.90
39023;DHT22;25908;51.984;5.928;2022-12-17T02:00:04;3.00;99.90
39023;DHT22;25908;51.984;5.928;2022-12-17T02:02:48;3.00;99.90
39023;DHT22;25908;51.984;5.928;2022-12-17T02:09:06;2.90;99.90
39023;DHT22;25908;51.984;5.928;2022-12-17T02:16:07;2.90;99.90
39023;DHT22;25908;51.984;5.928;2022-12-17T02:19:01;2.90;99.90
39023;DHT22;25908;51.984;5.928;2022-12-17T02:21:51;2.90;99.90
39023;DHT22;25908;51.984;5.928;2022-12-17T02:24:38;2.90;99.90
39023;DHT22;25908;51.984;5.928;2022-12-17T02:27:27;2.90;99.90
39023;DHT22;25908;51.984;5.928;2022-12-17T02:30:12;2.80;99.90
39023;DHT22;25908;51.984;5.928;2022-12-17T02:32:58;2.80;99.90
39023;DHT22;25908;51.984;5.928;2022-12-17T02:35:45;2.90;99.90
39023;DHT22;25908;51.984;5.928;2022-12-17T02:38:32;2.80;99.90
39023;DHT22;25908;51.984;5.928;2022-12-17T02:41:40;2.90;99.90
39023;DHT22;25908;51.984;5.928;2022-12-17T02:44:25;2.80;99.90
39023;DHT22;25908;51.984;5.928;2022-12-17T02:47:12;2.80;99.90
39023;DHT22;25908;51.984;5.928;2022-12-17T02:49:57;2.80;99.90
39023;DHT22;25908;51.984;5.928;2022-12-17T02:52:47;2.80;99.90
39023;DHT22;25908;51.984;5.928;2022-12-17T02:55:32;2.80;99.90
39023;DHT22;25908;51.984;5.928;2022-12-17T02:58:16;2.80;99.90
39023;DHT22;25908;51.984;5.928;2022-12-17T03:01:01;2.80;99.90
39023;DHT22;25908;51.984;5.928;2022-12-17T03:03:45;2.80;99.90
39023;DHT22;25908;51.984;5.928;2022-12-17T03:06:37;2.80;99.90
39023;DHT22;25908;51.984;5.928;2022-12-17T03:09:21;2.80;99.90
39023;DHT22;25908;51.984;5.928;2022-12-17T03:12:05;2.80;99.90
39023;DHT22;25908;51.984;5.928;2022-12-17T03:14:50;2.70;99.90
39023;DHT22;25908;51.984;5.928;2022-12-17T03:17:34;2.70;99.90
39023;DHT22;25908;51.984;5.928;2022-12-17T03:20:18;2.70;99.90
39023;DHT22;25908;51.984;5.928;2022-12-17T03:23:03;2.70;99.90
39023;DHT22;25908;51.984;5.928;2022-12-17T03:25:48;2.70;99.90
39023;DHT22;25908;51.984;5.928;2022-12-17T03:28:32;2.70;99.90
39023;DHT22;25908;51.984;5.928;2022-12-17T03:31:16;2.70;99.90
39023;DHT22;25908;51.984;5.928;2022-12-17T03:34:00;2.70;99.90
39023;DHT22;25908;51.984;5.928;2022-12-17T03:36:44;2.70;99.90
39023;DHT22;25908;51.984;5.928;2022-12-17T03:39:28;2.80;99.90
39023;DHT22;25908;51.984;5.928;2022-12-17T03:42:12;2.80;99.90
39023;DHT22;25908;51.984;5.928;2022-12-17T03:44:56;2.70;99.90
39023;DHT22;25908;51.984;5.928;2022-12-17T03:47:40;2.70;99.90
39023;DHT22;25908;51.984;5.928;2022-12-17T03:50:24;2.70;99.90
39023;DHT22;25908;51.984;5.928;2022-12-17T03:53:08;2.70;99.90
39023;DHT22;25908;51.984;5.928;2022-12-17T03:55:52;2.70;99.90
39023;DHT22;25908;51.984;5.928;2022-12-17T03:58:36;2.70;99.90
39023;DHT22;25908;51.984;5.928;2022-12-17T04:01:20;2.70;99.90
39023;DHT22;25908;51.984;5.928;2022-12-17T04:04:04;2.60;99.90
39023;DHT22;25908;51.984;5.928;2022-12-17T04:06:48;2.60;99.90
39023;DHT22;25908;51.984;5.928;2022-12-17T04:09:32;2.60;99.90
39023;DHT22;25908;51.984;5.928;2022-12-17T04:12:16;2.60;99.90
39023;DHT22;25908;51.984;5.928;2022-12-17T04:15:00;2.70;99.90
39023;DHT22;25908;51.984;5.928;2022-12-17T04:17:44;2.60;99.90
39023;DHT22;25908;51.984;5.928;2022-12-17T04:20:28;2.60;99.90
39023;DHT22;25908;51.984;5.928;2022-12-17T04:23:12;2.60;99.90
39023;DHT22;25908;51.984;5.928;2022-12-17T04:25:56;2.60;99.90
39023;DHT22;25908;51.984;5.928;2022-12-17T04:28:40;2.50;99.90
39023;DHT22;25908;51.984;5.928;2022-12-17T04:31:24;2.50;99.90
39023;DHT22;25908;51.984;5.928;2022-12-17T04:34:08;2.40;99.90
39023;DHT22;25908;51.984;5.928;2022-12-17T04:36:52;2.40;99.90
39023;DHT22;25908;51.984;5.928;2022-12-17T04:39:36;2.40;99.90
39023;DHT22;25908;51.984;5.928;2022-12-17T04:42:20;2.40;99.90
39023;DHT22;25908;51.984;5.928;2022-12-17T04:45:05;2.40;99.90
39023;DHT22;25908;51.984;5.928;2022-12-17T04:47:49;2.40;99.90
39023;DHT22;25908;51.984;5.928;2022-12-17T04:50:33;2.40;99.90
39023;DHT22;25908;51.984;5.928;2022-12-17T04:53:17;2.40;99.90
39023;DHT22;25908;51.984;5.928;2022-12-17T04:56:01;2.40;99.90
39023;DHT22;25908;51.984;5.928;2022-12-17T04:58:45;2.30;99.90
39023;DHT22;25908;51.984;5.928;2022-12-17T05:01:30;2.30;99.90
39023;DHT22;25908;51.984;5.928;2022-12-17T05:04:14;2.30;99.90
39023;DHT22;25908;51.984;5.928;2022-12-17T05:06:58;2.30;99.90
39023;DHT22;25908;51.984;5.928;2022-12-17T05:09:42;2.30;99.90
39023;DHT22;25908;51.984;5.928;2022-12-17T05:12:26;2.20;99.90
39023;DHT22;25908;51.984;5.928;2022-12-17T05:15:10;2.20;99.90
39023;DHT22;25908;51.984;5.928;2022-12-17T05:18:06;2.20;99.90
39023;DHT22;25908;51.984;5.928;2022-12-17T05:20:50;2.20;99.90
39023;DHT22;25908;51.984;5.928;2022-12-17T05:23:34;2.20;99.90
39023;DHT22;25908;51.984;5.928;2022-12-17T05:26:21;2.20;99.90
39023;DHT22;25908;51.984;5.928;2022-12-17T05:29:06;2.20;99.90
39023;DHT22;25908;51.984;5.928;2022-12-17T05:31:50;2.10;99.90
39023;DHT22;25908;51.984;5.928;2022-12-17T05:34:34;2.10;99.90
39023;DHT22;25908;51.984;5.928;2022-12-17T05:37:18;2.10;99.90
39023;DHT22;25908;51.984;5.928;2022-12-17T05:40:03;2.10;99.90
39023;DHT22;25908;51.984;5.928;2022-12-17T05:43:17;2.10;99.90
39023;DHT22;25908;51.984;5.928;2022-12-17T05:46:01;2.10;99.90
39023;DHT22;25908;51.984;5.928;2022-12-17T05:48:45;2.10;99.90
39023;DHT22;25908;51.984;5.928;2022-12-17T05:51:29;2.10;99.90
39023;DHT22;25908;51.984;5.928;2022-12-17T05:54:13;2.00;99.90
39023;DHT22;25908;51.984;5.928;2022-12-17T05:56:57;2.00;99.90
39023;DHT22;25908;51.984;5.928;2022-12-17T05:59:41;2.10;99.90
39023;DHT22;25908;51.984;5.928;2022-12-17T06:02:26;2.10;99.90
39023;DHT22;25908;51.984;5.928;2022-12-17T06:05:10;2.10;99.90
39023;DHT22;25908;51.984;5.928;2022-12-17T06:08:08;2.20;99.90
39023;DHT22;25908;51.984;5.928;2022-12-17T06:11:06;2.20;99.90
39023;DHT22;25908;51.984;5.928;2022-12-17T06:13:50;2.20;99.90
39023;DHT22;25908;51.984;5.928;2022-12-17T06:16:34;2.20;99.90
39023;DHT22;25908;51.984;5.928;2022-12-17T06:19:18;2.20;99.90
39023;DHT22;25908;51.984;5.928;2022-12-17T06:22:02;2.20;99.90
39023;DHT22;25908;51.984;5.928;2022-12-17T06:24:46;2.20;99.90
39023;DHT22;25908;51.984;5.928;2022-12-17T06:27:30;2.20;99.90
39023;DHT22;25908;51.984;5.928;2022-12-17T06:30:14;2.20;99.90
39023;DHT22;25908;51.984;5.928;2022-12-17T06:33:06;2.30;99.90
39023;DHT22;25908;51.984;5.928;2022-12-17T06:35:52;2.30;99.90
39023;DHT22;25908;51.984;5.928;2022-12-17T06:38:36;2.30;99.90
39023;DHT22;25908;51.984;5.928;2022-12-17T06:41:20;2.30;99.90
39023;DHT22;25908;51.984;5.928;2022-12-17T06:44:04;2.30;99.90
39023;DHT22;25908;51.984;5.928;2022-12-17T06:46:48;2.40;99.90
39023;DHT22;25908;51.984;5.928;2022-12-17T06:49:32;2.30;99.90
39023;DHT22;25908;51.984;5.928;2022-12-17T06:52:16;2.30;99.90
39023;DHT22;25908;51.984;5.928;2022-12-17T06:55:00;2.30;99.90
39023;DHT22;25908;51.984;5.928;2022-12-17T06:57:44;2.30;99.90
39023;DHT22;25908;51.984;5.928;2022-12-17T07:00:28;2.30;99.90
39023;DHT22;25908;51.984;5.928;2022-12-17T07:03:13;2.40;99.90
39023;DHT22;25908;51.984;5.928;2022-12-17T07:05:59;2.40;99.90
39023;DHT22;25908;51.984;5.928;2022-12-17T07:08:44;2.40;99.90
39023;DHT22;25908;51.984;5.928;2022-12-17T07:11:38;2.30;99.90
39023;DHT22;25908;51.984;5.928;2022-12-17T07:14:23;2.30;99.90
39023;DHT22;25908;51.984;5.928;2022-12-17T07:17:07;2.30;99.90
39023;DHT22;25908;51.984;5.928;2022-12-17T07:19:51;2.30;99.90
39023;DHT22;25908;51.984;5.928;2022-12-17T07:22:35;2.30;99.90
39023;DHT22;25908;51.984;5.928;2022-12-17T07:25:20;2.30;99.90
39023;DHT22;25908;51.984;5.928;2022-12-17T07:28:04;2.40;99.90
39023;DHT22;25908;51.984;5.928;2022-12-17T07:31:05;2.40;99.90
39023;DHT22;25908;51.984;5.928;2022-12-17T07:33:49;2.40;99.90
39023;DHT22;25908;51.984;5.928;2022-12-17T07:36:33;2.40;99.90
39023;DHT22;25908;51.984;5.928;2022-12-17T07:39:17;2.40;99.90
39023;DHT22;25908;51.984;5.928;2022-12-17T07:42:01;2.40;99.90
39023;DHT22;25908;51.984;5.928;2022-12-17T07:44:45;2.40;99.90
39023;DHT22;25908;51.984;5.928;2022-12-17T07:47:29;2.40;99.90
39023;DHT22;25908;51.984;5.928;2022-12-17T07:50:13;2.50;99.90
39023;DHT22;25908;51.984;5.928;2022-12-17T07:53:01;2.50;99.90
39023;DHT22;25908;51.984;5.928;2022-12-17T07:55:46;2.50;99.90
39023;DHT22;25908;51.984;5.928;2022-12-17T07:58:30;2.60;99.90
39023;DHT22;25908;51.984;5.928;2022-12-17T08:01:15;2.50;99.90
39023;DHT22;25908;51.984;5.928;2022-12-17T08:03:59;2.50;99.90
39023;DHT22;25908;51.984;5.928;2022-12-17T08:06:43;2.50;99.90
39023;DHT22;25908;51.984;5.928;2022-12-17T08:09:27;2.50;99.90
39023;DHT22;25908;51.984;5.928;2022-12-17T08:12:12;2.40;99.90
39023;DHT22;25908;51.984;5.928;2022-12-17T08:14:55;2.40;99.90
39023;DHT22;25908;51.984;5.928;2022-12-17T08:17:40;2.40;99.90
39023;DHT22;25908;51.984;5.928;2022-12-17T08:20:24;2.50;99.90
39023;DHT22;25908;51.984;5.928;2022-12-17T08:23:08;2.50;99.90
39023;DHT22;25908;51.984;5.928;2022-12-17T08:25:52;2.50;99.90
39023;DHT22;25908;51.984;5.928;2022-12-17T08:28:50;2.50;99.90
39023;DHT22;25908;51.984;5.928;2022-12-17T08:31:34;2.50;99.90
39023;DHT22;25908;51.984;5.928;2022-12-17T08:34:18;2.50;99.90
39023;DHT22;25908;51.984;5.928;2022-12-17T08:37:03;2.50;99.90
39023;DHT22;25908;51.984;5.928;2022-12-17T08:39:46;2.60;99.90
39023;DHT22;25908;51.984;5.928;2022-12-17T08:42:30;2.60;99.90
39023;DHT22;25908;51.984;5.928;2022-12-17T08:45:15;2.60;99.90
39023;DHT22;25908;51.984;5.928;2022-12-17T08:48:06;2.60;99.90
39023;DHT22;25908;51.984;5.928;2022-12-17T08:50:50;2.60;99.90
39023;DHT22;25908;51.984;5.928;2022-12-17T08:53:35;2.50;99.90
39023;DHT22;25908;51.984;5.928;2022-12-17T08:56:19;2.40;99.90
39023;DHT22;25908;51.984;5.928;2022-12-17T08:59:03;2.50;99.90
39023;DHT22;25908;51.984;5.928;2022-12-17T09:01:48;2.50;99.90
39023;DHT22;25908;51.984;5.928;2022-12-17T09:04:31;2.50;99.90
39023;DHT22;25908;51.984;5.928;2022-12-17T09:07:16;2.50;99.90
39023;DHT22;25908;51.984;5.928;2022-12-17T09:10:00;2.50;99.90
39023;DHT22;25908;51.984;5.928;2022-12-17T09:12:44;2.50;99.90
39023;DHT22;25908;51.984;5.928;2022-12-17T09:15:28;2.50;99.90
39023;DHT22;25908;51.984;5.928;2022-12-17T09:18:12;2.50;99.90
39023;DHT22;25908;51.984;5.928;2022-12-17T09:20:56;2.50;99.90
39023;DHT22;25908;51.984;5.928;2022-12-17T09:23:44;2.50;99.90
39023;DHT22;25908;51.984;5.928;2022-12-17T09:26:30;2.40;99.90
39023;DHT22;25908;51.984;5.928;2022-12-17T09:29:14;2.40;99.90
39023;DHT22;25908;51.984;5.928;2022-12-17T09:31:59;2.50;99.90
39023;DHT22;25908;51.984;5.928;2022-12-17T09:34:42;2.50;99.90
39023;DHT22;25908;51.984;5.928;2022-12-17T09:37:26;2.50;99.90
39023;DHT22;25908;51.984;5.928;2022-12-17T09:40:21;2.40;99.90
39023;DHT22;25908;51.984;5.928;2022-12-17T09:43:38;2.40;99.90
39023;DHT22;25908;51.984;5.928;2022-12-17T09:46:36;2.40;99.90
39023;DHT22;25908;51.984;5.928;2022-12-17T09:49:25;2.40;99.90
39023;DHT22;25908;51.984;5.928;2022-12-17T09:52:32;2.40;99.90
39023;DHT22;25908;51.984;5.928;2022-12-17T09:55:27;2.40;99.90
39023;DHT22;25908;51.984;5.928;2022-12-17T09:58:24;2.50;99.90
39023;DHT22;25908;51.984;5.928;2022-12-17T10:01:19;2.50;99.90
39023;DHT22;25908;51.984;5.928;2022-12-17T10:04:41;2.50;99.90
39023;DHT22;25908;51.984;5.928;2022-12-17T10:07:34;2.60;99.90
39023;DHT22;25908;51.984;5.928;2022-12-17T10:10:22;2.50;99.90
39023;DHT22;25908;51.984;5.928;2022-12-17T10:13:10;2.60;99.90
39023;DHT22;25908;51.984;5.928;2022-12-17T10:15:55;2.60;99.90
39023;DHT22;25908;51.984;5.928;2022-12-17T10:18:39;2.60;99.90
39023;DHT22;25908;51.984;5.928;2022-12-17T10:21:26;2.60;99.90
39023;DHT22;25908;51.984;5.928;2022-12-17T10:24:10;2.70;99.70
39023;DHT22;25908;51.984;5.928;2022-12-17T10:26:55;2.70;99.70
39023;DHT22;25908;51.984;5.928;2022-12-17T10:29:40;2.60;99.70
39023;DHT22;25908;51.984;5.928;2022-12-17T10:32:26;2.70;99.90
39023;DHT22;25908;51.984;5.928;2022-12-17T10:37:59;2.60;99.60
39023;DHT22;25908;51.984;5.928;2022-12-17T10:40:48;2.60;99.60
39023;DHT22;25908;51.984;5.928;2022-12-17T10:43:37;2.70;99.80
39023;DHT22;25908;51.984;5.928;2022-12-17T10:46:26;2.70;99.80
39023;DHT22;25908;51.984;5.928;2022-12-17T10:49:16;2.70;99.80
39023;DHT22;25908;51.984;5.928;2022-12-17T10:52:04;2.70;99.80
39023;DHT22;25908;51.984;5.928;2022-12-17T10:55:01;2.80;99.90
39023;DHT22;25908;51.984;5.928;2022-12-17T10:57:47;2.80;99.70
39023;DHT22;25908;51.984;5.928;2022-12-17T11:00:38;2.80;99.50
39023;DHT22;25908;51.984;5.928;2022-12-17T11:06:34;2.80;99.40
39023;DHT22;25908;51.984;5.928;2022-12-17T11:12:13;2.80;99.40
39023;DHT22;25908;51.984;5.928;2022-12-17T11:15:06;2.90;99.60
39023;DHT22;25908;51.984;5.928;2022-12-17T11:17:54;2.90;99.50
39023;DHT22;25908;51.984;5.928;2022-12-17T11:21:34;3.00;99.60
39023;DHT22;25908;51.984;5.928;2022-12-17T11:24:51;3.00;99.30
39023;DHT22;25908;51.984;5.928;2022-12-17T11:27:44;3.10;99.50
39023;DHT22;25908;51.984;5.928;2022-12-17T11:30:32;3.10;98.90
39023;DHT22;25908;51.984;5.928;2022-12-17T11:33:42;3.10;98.90
39023;DHT22;25908;51.984;5.928;2022-12-17T11:36:49;3.10;99.00
39023;DHT22;25908;51.984;5.928;2022-12-17T11:39:40;3.10;99.10
39023;DHT22;25908;51.984;5.928;2022-12-17T11:42:33;3.10;99.20
39023;DHT22;25908;51.984;5.928;2022-12-17T11:45:34;3.10;99.30
39023;DHT22;25908;51.984;5.928;2022-12-17T11:48:33;3.10;99.30
39023;DHT22;25908;51.984;5.928;2022-12-17T11:51:27;3.10;99.30
39023;DHT22;25908;51.984;5.928;2022-12-17T11:57:36;3.10;99.20
39023;DHT22;25908;51.984;5.928;2022-12-17T12:00:38;3.10;99.10
39023;DHT22;25908;51.984;5.928;2022-12-17T12:03:43;3.10;99.30
39023;DHT22;25908;51.984;5.928;2022-12-17T12:06:51;3.00;99.10
39023;DHT22;25908;51.984;5.928;2022-12-17T12:10:11;3.00;99.10
39023;DHT22;25908;51.984;5.928;2022-12-17T12:13:17;3.00;99.10
39023;DHT22;25908;51.984;5.928;2022-12-17T12:16:27;3.00;99.00
39023;DHT22;25908;51.984;5.928;2022-12-17T12:19:34;3.00;98.80
39023;DHT22;25908;51.984;5.928;2022-12-17T12:22:29;3.00;98.90
39023;DHT22;25908;51.984;5.928;2022-12-17T12:34:22;3.00;99.20
39023;DHT22;25908;51.984;5.928;2022-12-17T12:37:12;3.00;99.10
39023;DHT22;25908;51.984;5.928;2022-12-17T12:43:29;3.00;99.10
39023;DHT22;25908;51.984;5.928;2022-12-17T12:46:46;3.00;99.00
39023;DHT22;25908;51.984;5.928;2022-12-17T12:49:32;3.00;98.90
39023;DHT22;25908;51.984;5.928;2022-12-17T12:52:23;2.90;99.00
39023;DHT22;25908;51.984;5.928;2022-12-17T12:55:08;2.90;99.00
39023;DHT22;25908;51.984;5.928;2022-12-17T12:58:04;2.90;99.10
39023;DHT22;25908;51.984;5.928;2022-12-17T13:06:47;2.90;99.00
39023;DHT22;25908;51.984;5.928;2022-12-17T13:11:54;2.90;98.80
39023;DHT22;25908;51.984;5.928;2022-12-17T13:14:25;2.90;99.00
39023;DHT22;25908;51.984;5.928;2022-12-17T13:16:56;2.80;98.90
39023;DHT22;25908;51.984;5.928;2022-12-17T13:21:56;2.80;99.00
39023;DHT22;25908;51.984;5.928;2022-12-17T13:24:26;2.70;99.20
39023;DHT22;25908;51.984;5.928;2022-12-17T13:26:52;2.70;99.20
39023;DHT22;25908;51.984;5.928;2022-12-17T13:29:27;2.70;99.20
39023;DHT22;25908;51.984;5.928;2022-12-17T13:37:23;2.80;99.20
39023;DHT22;25908;51.984;5.928;2022-12-17T13:40:25;2.80;99.10
39023;DHT22;25908;51.984;5.928;2022-12-17T13:42:56;2.70;99.10
39023;DHT22;25908;51.984;5.928;2022-12-17T13:45:23;2.70;99.20
39023;DHT22;25908;51.984;5.928;2022-12-17T13:47:54;2.70;99.30
39023;DHT22;25908;51.984;5.928;2022-12-17T13:52:48;2.60;99.20
39023;DHT22;25908;51.984;5.928;2022-12-17T13:55:20;2.60;99.20
39023;DHT22;25908;51.984;5.928;2022-12-17T13:57:46;2.70;99.30
39023;DHT22;25908;51.984;5.928;2022-12-17T14:00:27;2.70;99.20
39023;DHT22;25908;51.984;5.928;2022-12-17T14:02:53;2.70;99.30
39023;DHT22;25908;51.984;5.928;2022-12-17T14:05:34;2.60;99.20
39023;DHT22;25908;51.984;5.928;2022-12-17T14:08:04;2.60;99.40
39023;DHT22;25908;51.984;5.928;2022-12-17T14:10:30;2.60;99.10
39023;DHT22;25908;51.984;5.928;2022-12-17T14:13:07;2.60;99.00
39023;DHT22;25908;51.984;5.928;2022-12-17T14:15:35;2.50;99.30
39023;DHT22;25908;51.984;5.928;2022-12-17T14:18:01;2.50;99.10
39023;DHT22;25908;51.984;5.928;2022-12-17T14:20:30;2.50;99.30
39023;DHT22;25908;51.984;5.928;2022-12-17T14:23:02;2.50;99.50
39023;DHT22;25908;51.984;5.928;2022-12-17T14:25:33;2.60;99.30
39023;DHT22;25908;51.984;5.928;2022-12-17T14:28:05;2.50;99.10
39023;DHT22;25908;51.984;5.928;2022-12-17T14:30:39;2.50;99.00
39023;DHT22;25908;51.984;5.928;2022-12-17T14:33:25;2.50;99.20
39023;DHT22;25908;51.984;5.928;2022-12-17T14:35:53;2.50;99.30
39023;DHT22;25908;51.984;5.928;2022-12-17T14:38:22;2.40;99.40
39023;DHT22;25908;51.984;5.928;2022-12-17T14:40:48;2.50;99.40
39023;DHT22;25908;51.984;5.928;2022-12-17T14:43:14;2.40;99.20
39023;DHT22;25908;51.984;5.928;2022-12-17T14:45:54;2.40;99.20
39023;DHT22;25908;51.984;5.928;2022-12-17T14:48:40;2.40;99.40
39023;DHT22;25908;51.984;5.928;2022-12-17T14:51:39;2.40;99.30
39023;DHT22;25908;51.984;5.928;2022-12-17T14:56:51;2.40;99.40
39023;DHT22;25908;51.984;5.928;2022-12-17T15:01:53;2.30;99.70
39023;DHT22;25908;51.984;5.928;2022-12-17T15:04:20;2.30;99.80
39023;DHT22;25908;51.984;5.928;2022-12-17T15:06:46;2.20;99.80
39023;DHT22;25908;51.984;5.928;2022-12-17T15:09:12;2.20;99.80
39023;DHT22;25908;51.984;5.928;2022-12-17T15:11:38;2.30;99.90
39023;DHT22;25908;51.984;5.928;2022-12-17T15:14:03;2.20;99.90
39023;DHT22;25908;51.984;5.928;2022-12-17T15:16:29;2.20;99.90
39023;DHT22;25908;51.984;5.928;2022-12-17T15:18:55;2.20;99.60
39023;DHT22;25908;51.984;5.928;2022-12-17T15:21:21;2.20;99.60
39023;DHT22;25908;51.984;5.928;2022-12-17T15:23:48;2.10;99.50
39023;DHT22;25908;51.984;5.928;2022-12-17T15:26:14;2.10;99.50
39023;DHT22;25908;51.984;5.928;2022-12-17T15:28:43;2.00;99.70
39023;DHT22;25908;51.984;5.928;2022-12-17T15:31:11;2.00;99.80
39023;DHT22;25908;51.984;5.928;2022-12-17T15:33:37;2.00;99.90
39023;DHT22;25908;51.984;5.928;2022-12-17T15:36:04;2.00;99.90
39023;DHT22;25908;51.984;5.928;2022-12-17T15:38:29;2.00;99.90
39023;DHT22;25908;51.984;5.928;2022-12-17T15:40:58;1.90;99.60
39023;DHT22;25908;51.984;5.928;2022-12-17T15:43:23;1.90;99.90
39023;DHT22;25908;51.984;5.928;2022-12-17T15:45:50;1.90;99.90
39023;DHT22;25908;51.984;5.928;2022-12-17T15:48:20;1.90;99.90
39023;DHT22;25908;51.984;5.928;2022-12-17T15:50:47;1.90;99.90
39023;DHT22;25908;51.984;5.928;2022-12-17T15:53:13;1.80;99.70
39023;DHT22;25908;51.984;5.928;2022-12-17T15:55:39;1.80;99.90
39023;DHT22;25908;51.984;5.928;2022-12-17T15:58:06;1.80;99.70
39023;DHT22;25908;51.984;5.928;2022-12-17T16:00:32;1.70;99.90
39023;DHT22;25908;51.984;5.928;2022-12-17T16:02:58;1.70;99.90
39023;DHT22;25908;51.984;5.928;2022-12-17T16:05:24;1.70;99.90
39023;DHT22;25908;51.984;5.928;2022-12-17T16:07:50;1.70;99.90
39023;DHT22;25908;51.984;5.928;2022-12-17T16:10:16;1.70;99.90
39023;DHT22;25908;51.984;5.928;2022-12-17T16:12:42;1.70;99.90
39023;DHT22;25908;51.984;5.928;2022-12-17T16:15:08;1.70;99.90
39023;DHT22;25908;51.984;5.928;2022-12-17T16:17:34;1.70;99.90
39023;DHT22;25908;51.984;5.928;2022-12-17T16:20:00;1.70;99.90
39023;DHT22;25908;51.984;5.928;2022-12-17T16:22:26;1.70;99.90
39023;DHT22;25908;51.984;5.928;2022-12-17T16:24:52;1.70;99.90
39023;DHT22;25908;51.984;5.928;2022-12-17T16:27:18;1.70;99.90
39023;DHT22;25908;51.984;5.928;2022-12-17T16:29:44;1.70;99.90
39023;DHT22;25908;51.984;5.928;2022-12-17T16:32:11;1.60;99.90
39023;DHT22;25908;51.984;5.928;2022-12-17T16:34:37;1.60;99.90
39023;DHT22;25908;51.984;5.928;2022-12-17T16:37:05;1.60;99.90
39023;DHT22;25908;51.984;5.928;2022-12-17T16:39:31;1.60;99.90
39023;DHT22;25908;51.984;5.928;2022-12-17T16:41:57;1.60;99.90
39023;DHT22;25908;51.984;5.928;2022-12-17T16:44:23;1.60;99.90
39023;DHT22;25908;51.984;5.928;2022-12-17T16:46:49;1.60;99.90
39023;DHT22;25908;51.984;5.928;2022-12-17T16:49:19;1.60;99.80
39023;DHT22;25908;51.984;5.928;2022-12-17T16:51:47;1.60;99.80
39023;DHT22;25908;51.984;5.928;2022-12-17T16:54:15;1.50;99.80
39023;DHT22;25908;51.984;5.928;2022-12-17T16:56:42;1.60;99.90
39023;DHT22;25908;51.984;5.928;2022-12-17T16:59:09;1.50;99.90
39023;DHT22;25908;51.984;5.928;2022-12-17T17:01:35;1.40;99.90
39023;DHT22;25908;51.984;5.928;2022-12-17T17:04:03;1.40;99.90
39023;DHT22;25908;51.984;5.928;2022-12-17T17:06:29;1.40;99.90
39023;DHT22;25908;51.984;5.928;2022-12-17T17:08:54;1.40;99.90
39023;DHT22;25908;51.984;5.928;2022-12-17T17:11:24;1.40;99.90
39023;DHT22;25908;51.984;5.928;2022-12-17T17:13:53;1.50;99.90
39023;DHT22;25908;51.984;5.928;2022-12-17T17:16:21;1.50;99.90
39023;DHT22;25908;51.984;5.928;2022-12-17T17:18:51;1.50;99.90
39023;DHT22;25908;51.984;5.928;2022-12-17T17:21:32;1.50;99.90
39023;DHT22;25908;51.984;5.928;2022-12-17T17:24:02;1.50;99.90
39023;DHT22;25908;51.984;5.928;2022-12-17T17:26:30;1.50;99.90
39023;DHT22;25908;51.984;5.928;2022-12-17T17:28:56;1.50;99.90
39023;DHT22;25908;51.984;5.928;2022-12-17T17:31:22;1.50;99.90
39023;DHT22;25908;51.984;5.928;2022-12-17T17:33:49;1.50;99.90
39023;DHT22;25908;51.984;5.928;2022-12-17T17:36:27;1.50;99.90
39023;DHT22;25908;51.984;5.928;2022-12-17T17:38:54;1.50;99.90
39023;DHT22;25908;51.984;5.928;2022-12-17T17:41:23;1.50;99.90
39023;DHT22;25908;51.984;5.928;2022-12-17T17:44:00;1.50;99.90
39023;DHT22;25908;51.984;5.928;2022-12-17T17:46:28;1.40;99.90
39023;DHT22;25908;51.984;5.928;2022-12-17T17:48:56;1.40;99.90
39023;DHT22;25908;51.984;5.928;2022-12-17T17:51:25;1.40;99.90
39023;DHT22;25908;51.984;5.928;2022-12-17T17:53:52;1.30;99.90
39023;DHT22;25908;51.984;5.928;2022-12-17T17:56:24;1.30;99.90
39023;DHT22;25908;51.984;5.928;2022-12-17T17:58:57;1.30;99.90
39023;DHT22;25908;51.984;5.928;2022-12-17T18:01:29;1.30;99.90
39023;DHT22;25908;51.984;5.928;2022-12-17T18:03:56;1.20;99.90
39023;DHT22;25908;51.984;5.928;2022-12-17T18:06:21;1.30;99.90
39023;DHT22;25908;51.984;5.928;2022-12-17T18:08:47;1.20;99.90
39023;DHT22;25908;51.984;5.928;2022-12-17T18:11:16;1.20;99.90
39023;DHT22;25908;51.984;5.928;2022-12-17T18:13:42;1.10;99.90
39023;DHT22;25908;51.984;5.928;2022-12-17T18:19:03;1.10;99.90